This is the latest recevied weather packets stored in our database for station/object DG7AA-13. If no packets are shown the sender has not sent any weather packets the latest 10 day(s).
| Time | Temp. | Humidity | Pressure | Rain* | Wind** | Luminosity | Snow |
|---|---|---|---|---|---|---|---|
| 1777623334 | 16.67° C | 50% | - | 0 mm | - | - | - |
| 1777622727 | 15.56° C | 56% | - | 0 mm | - | - | - |
| 1777622131 | 13.89° C | 60% | - | 0 mm | - | - | - |
| 1777621527 | 12.22° C | 71% | - | 0 mm | - | - | - |
| 1777620924 | 10° C | 78% | - | 0 mm | - | - | - |
| 1777620324 | 8.89° C | 80% | - | 0 mm | - | - | - |
| 1777619734 | 8.33° C | 83% | - | 0 mm | - | - | - |
| 1777619127 | 7.78° C | 87% | - | 0 mm | - | - | - |
| 1777618526 | 7.22° C | 89% | - | 0 mm | - | - | - |
| 1777617924 | 6.67° C | 90% | - | 0 mm | - | - | - |
| 1777617325 | 6.11° C | 91% | - | 0 mm | - | - | - |
| 1777616723 | 5.56° C | 92% | - | 0 mm | - | - | - |
| 1777616142 | 5° C | 94% | - | 0 mm | - | - | - |
| 1777615521 | 5° C | 95% | - | 0 mm | - | - | - |
| 1777614934 | 4.44° C | 97% | - | 0 mm | - | - | - |
| 1777614324 | 3.89° C | 97% | - | 0 mm | - | - | - |
| 1777613732 | 3.33° C | 97% | - | 0 mm | - | - | - |
| 1777613124 | 2.78° C | 97% | - | 0 mm | - | - | - |
| 1777612535 | 2.22° C | 97% | - | 0 mm | - | - | - |
| 1777611334 | 1.67° C | 97% | - | 0 mm | - | - | - |
| 1777610723 | 1.11° C | 96% | - | 0 mm | - | - | - |
| 1777610131 | 1.11° C | 96% | - | 0 mm | - | - | - |
| 1777609523 | 0.56° C | 96% | - | 0 mm | - | - | - |
| 1777608931 | 0.56° C | 96% | - | 0 mm | - | - | - |
| 1777608327 | 0.56° C | 96% | - | 0 mm | - | - | - |
* Rain latest hour (hover to see other rain measurements)
** Current wind speed in m/s (hover to see current wind gust speed)